createdAt,value
2022-10-06T05:33:58.538Z,11.30
2022-10-06T05:39:00.606Z,11.30
2022-10-06T05:44:02.455Z,11.30
2022-10-06T05:49:07.925Z,11.20
2022-10-06T05:54:09.798Z,11.10
2022-10-06T05:59:11.636Z,11.20
2022-10-06T06:04:13.725Z,11.10
2022-10-06T06:09:17.441Z,11.10
2022-10-06T06:14:43.990Z,11.10
2022-10-06T06:19:45.828Z,11.00
2022-10-06T06:24:48.312Z,11.00
2022-10-06T06:29:50.458Z,11.00
2022-10-06T06:34:52.849Z,11.00
2022-10-06T06:39:55.026Z,11.00
2022-10-06T06:44:56.807Z,11.00
2022-10-06T06:50:00.075Z,11.00
2022-10-06T06:55:01.897Z,11.10
2022-10-06T07:00:07.994Z,11.00
2022-10-06T07:05:11.532Z,11.10
2022-10-06T07:10:13.486Z,11.10
2022-10-06T07:15:33.710Z,11.20
2022-10-06T07:20:54.277Z,11.20
2022-10-06T07:25:56.101Z,11.30
2022-10-06T07:31:00.784Z,11.30
2022-10-06T07:36:02.779Z,11.40
2022-10-06T07:41:18.875Z,11.50
2022-10-06T07:46:21.816Z,11.50
2022-10-06T07:51:24.840Z,11.60
2022-10-06T07:56:32.563Z,11.70
2022-10-06T08:01:34.421Z,11.80
2022-10-06T08:06:36.412Z,11.90
2022-10-06T08:11:38.192Z,12.00
2022-10-06T08:16:39.976Z,12.10
2022-10-06T08:21:41.856Z,12.20
2022-10-06T08:26:43.988Z,12.30
2022-10-06T08:31:45.905Z,12.40
2022-10-06T08:37:02.375Z,12.60
2022-10-06T08:42:18.529Z,12.70
2022-10-06T08:47:22.782Z,12.80
2022-10-06T08:52:46.883Z,12.90
2022-10-06T08:58:30.458Z,13.10
2022-10-06T09:03:32.321Z,13.20
2022-10-06T09:08:41.722Z,13.40
2022-10-06T09:13:53.315Z,13.50
2022-10-06T09:19:37.773Z,13.60
2022-10-06T09:24:47.524Z,13.70
2022-10-06T09:29:50.645Z,13.90
2022-10-06T09:34:59.864Z,14.00
2022-10-06T09:40:01.751Z,14.10
2022-10-06T09:45:06.680Z,14.30
2022-10-06T09:50:23.537Z,14.40
2022-10-06T09:55:28.719Z,14.50
2022-10-06T10:01:07.214Z,14.60
2022-10-06T10:06:09.149Z,14.70
2022-10-06T10:11:37.524Z,14.90
2022-10-06T10:16:39.463Z,15.00
2022-10-06T10:21:44.646Z,15.10
2022-10-06T10:27:22.765Z,15.20
2022-10-06T10:32:57.568Z,15.30
2022-10-06T10:38:14.418Z,15.50
2022-10-06T10:43:36.159Z,15.60
2022-10-06T10:48:51.581Z,15.70
2022-10-06T10:53:58.610Z,15.70
2022-10-06T10:59:07.207Z,15.80
2022-10-06T11:04:11.674Z,15.90
2022-10-06T11:09:23.256Z,16.00
2022-10-06T11:14:50.131Z,16.10
2022-10-06T11:20:08.856Z,16.10
2022-10-06T11:25:27.553Z,16.20
2022-10-06T11:30:33.815Z,16.30
2022-10-06T11:35:38.252Z,16.50
2022-10-06T11:41:09.815Z,16.50
2022-10-06T11:46:31.111Z,16.50
2022-10-06T11:51:34.161Z,16.60
2022-10-06T11:56:37.838Z,16.80
2022-10-06T12:01:47.807Z,17.20
2022-10-06T12:06:55.526Z,17.60
2022-10-06T12:12:17.956Z,18.10
2022-10-06T12:17:25.552Z,18.40
2022-10-06T12:22:31.330Z,18.60
2022-10-06T12:27:48.781Z,18.90
2022-10-06T12:32:58.246Z,18.90
2022-10-06T12:38:05.483Z,19.10
2022-10-06T12:43:19.511Z,19.30
2022-10-06T12:48:33.329Z,19.60
2022-10-06T12:53:57.466Z,19.90
2022-10-06T12:59:19.887Z,20.20
2022-10-06T13:04:31.879Z,20.40
2022-10-06T13:09:34.458Z,20.70
2022-10-06T13:14:36.678Z,20.80
2022-10-06T13:19:43.802Z,21.00
2022-10-06T13:24:45.622Z,21.10
2022-10-06T13:29:47.444Z,21.20
2022-10-06T13:34:49.329Z,21.20
2022-10-06T13:39:51.157Z,21.30
2022-10-06T13:45:01.087Z,21.30
2022-10-06T13:50:08.510Z,21.40
2022-10-06T13:55:23.116Z,21.30
2022-10-06T14:00:28.842Z,21.40
2022-10-06T14:05:36.478Z,21.50
2022-10-06T14:10:41.273Z,21.60
2022-10-06T14:15:49.155Z,21.70
2022-10-06T14:20:56.562Z,21.70
2022-10-06T14:25:58.766Z,21.80
2022-10-06T14:31:00.894Z,21.80
2022-10-06T14:36:03.244Z,21.90
2022-10-06T14:41:05.017Z,21.90
2022-10-06T14:46:09.619Z,22.10
2022-10-06T14:51:11.452Z,22.00
2022-10-06T14:56:14.836Z,21.80
2022-10-06T15:01:17.635Z,21.60
2022-10-06T15:06:37.937Z,21.40
2022-10-06T15:11:40.578Z,21.30
2022-10-06T15:16:44.427Z,21.10
2022-10-06T15:21:46.393Z,20.90
2022-10-06T15:27:06.960Z,20.90
2022-10-06T15:32:09.587Z,20.80
2022-10-06T15:37:11.433Z,20.70
2022-10-06T15:42:15.487Z,20.60
2022-10-06T15:47:17.681Z,20.50
2022-10-06T15:52:19.515Z,20.40
2022-10-06T15:57:22.135Z,20.30
2022-10-06T16:02:24.099Z,20.20
2022-10-06T16:07:26.014Z,19.90
2022-10-06T16:12:28.629Z,19.60
2022-10-06T16:17:30.546Z,19.30
2022-10-06T16:22:32.345Z,19.10
2022-10-06T16:27:35.326Z,18.80
2022-10-06T16:32:37.305Z,18.60
2022-10-06T16:37:39.411Z,18.40
2022-10-06T16:42:43.525Z,18.20
2022-10-06T16:47:45.555Z,18.00
2022-10-06T16:52:47.446Z,17.80
2022-10-06T16:57:49.412Z,17.60
2022-10-06T17:02:52.716Z,17.40
2022-10-06T17:07:59.052Z,17.30
2022-10-06T17:13:01.174Z,17.20
2022-10-06T17:18:03.118Z,17.00
2022-10-06T17:23:05.075Z,16.90
2022-10-06T17:28:07.331Z,16.70
2022-10-06T17:33:09.472Z,16.60
2022-10-06T17:38:11.382Z,16.40
2022-10-06T17:43:13.244Z,16.20
2022-10-06T17:48:15.285Z,16.10
2022-10-06T17:53:17.765Z,15.90
2022-10-06T17:58:19.691Z,15.80
2022-10-06T18:03:26.513Z,15.70
2022-10-06T18:08:28.424Z,15.50
2022-10-06T18:13:32.211Z,15.40
2022-10-06T18:18:34.256Z,15.30
2022-10-06T18:23:36.546Z,15.20
2022-10-06T18:28:39.850Z,15.10
2022-10-06T18:36:10.715Z,15.10
2022-10-06T18:39:05.193Z,14.90
2022-10-06T18:44:08.614Z,14.90
2022-10-06T18:49:12.583Z,14.80
2022-10-06T18:54:26.908Z,14.80
